createdAt,value
2022-10-21T00:00:26.959Z,94.78
2022-10-21T00:01:27.002Z,95.19
2022-10-21T00:02:26.943Z,95.29
2022-10-21T00:03:26.947Z,95.03
2022-10-21T00:04:26.891Z,95.44
2022-10-21T00:05:26.891Z,95.50
2022-10-21T00:06:26.906Z,95.54
2022-10-21T00:07:26.868Z,95.44
2022-10-21T00:08:26.991Z,95.23
2022-10-21T00:09:26.968Z,95.03
2022-10-21T00:10:26.911Z,95.34
2022-10-21T00:11:26.827Z,95.44
2022-10-21T00:12:26.846Z,95.64
2022-10-21T00:13:26.824Z,95.23
2022-10-21T00:14:26.782Z,95.23
2022-10-21T00:15:26.821Z,95.54
2022-10-21T00:16:26.769Z,95.44
2022-10-21T00:17:26.776Z,95.75
2022-10-21T00:18:26.773Z,95.34
2022-10-21T00:19:26.733Z,95.75
2022-10-21T00:20:26.744Z,95.23
2022-10-21T00:21:26.708Z,94.93
2022-10-21T00:22:26.697Z,95.34
2022-10-21T00:23:26.715Z,95.23
2022-10-21T00:24:26.685Z,95.75
2022-10-21T00:25:26.668Z,95.34
2022-10-21T00:26:26.652Z,95.64
2022-10-21T00:27:26.640Z,95.64
2022-10-21T00:28:26.661Z,95.34
2022-10-21T00:29:26.630Z,95.44
2022-10-21T00:30:26.615Z,95.64
2022-10-21T00:31:26.598Z,95.44
2022-10-21T00:32:26.617Z,95.44
2022-10-21T00:33:26.583Z,95.64
2022-10-21T00:34:30.644Z,95.54
2022-10-21T00:35:26.559Z,95.23
2022-10-21T00:36:26.544Z,95.13
2022-10-21T00:37:26.543Z,94.73
2022-10-21T00:38:26.517Z,95.23
2022-10-21T00:39:26.518Z,95.23
2022-10-21T00:40:26.488Z,95.23
2022-10-21T00:41:26.497Z,95.23
2022-10-21T00:42:26.470Z,95.75
2022-10-21T00:43:26.488Z,95.85
2022-10-21T00:44:26.495Z,95.54
2022-10-21T00:45:26.452Z,95.75
2022-10-21T00:46:26.421Z,95.23
2022-10-21T00:47:26.431Z,95.44
2022-10-21T00:48:26.410Z,95.34
2022-10-21T00:49:26.428Z,95.03
2022-10-21T00:50:26.390Z,95.03
2022-10-21T00:51:26.384Z,95.34
2022-10-21T00:52:26.369Z,95.23
2022-10-21T00:53:26.352Z,95.34
2022-10-21T00:54:26.368Z,95.64
2022-10-21T00:55:26.334Z,94.93
2022-10-21T00:56:26.316Z,95.13
2022-10-21T00:57:26.301Z,95.23
2022-10-21T00:58:26.301Z,95.54
2022-10-21T00:59:26.306Z,95.64
2022-10-21T01:00:26.301Z,95.19
2022-10-21T01:01:26.403Z,96.15
2022-10-21T01:02:26.270Z,96.05
2022-10-21T01:03:26.276Z,95.95
2022-10-21T01:04:26.235Z,95.64
2022-10-21T01:05:26.224Z,95.54
2022-10-21T01:06:26.230Z,95.64
2022-10-21T01:07:26.206Z,95.44
2022-10-21T01:08:26.203Z,96.15
2022-10-21T01:09:26.207Z,96.15
2022-10-21T01:10:26.164Z,95.54
2022-10-21T01:11:26.183Z,95.64
2022-10-21T01:12:26.133Z,96.15
2022-10-21T01:13:26.182Z,96.51
2022-10-21T01:14:26.110Z,96.56
2022-10-21T01:15:26.110Z,96.05
2022-10-21T01:16:26.102Z,96.05
2022-10-21T01:17:43.643Z,96.36
2022-10-21T01:18:27.102Z,96.05
2022-10-21T01:19:26.070Z,95.75
2022-10-21T01:20:26.043Z,95.85
2022-10-21T01:21:26.053Z,95.85
2022-10-21T01:22:26.045Z,95.75
2022-10-21T01:23:26.048Z,95.64
2022-10-21T01:24:26.015Z,95.44
2022-10-21T01:25:26.007Z,96.05
2022-10-21T01:26:25.978Z,96.05
2022-10-21T01:27:25.982Z,96.26
2022-10-21T01:28:25.978Z,96.05
2022-10-21T01:29:25.989Z,96.26
2022-10-21T01:30:25.937Z,96.46
2022-10-21T01:31:25.922Z,96.26
2022-10-21T01:32:25.918Z,96.26
2022-10-21T01:33:25.926Z,96.26
2022-10-21T01:34:25.926Z,96.46
2022-10-21T01:35:25.882Z,96.46
2022-10-21T01:36:25.877Z,96.26
2022-10-21T01:37:25.920Z,96.46
2022-10-21T01:38:25.867Z,96.11
2022-10-21T01:39:25.898Z,96.36
2022-10-21T01:40:25.861Z,96.36
2022-10-21T01:41:25.822Z,96.36
2022-10-21T01:42:25.827Z,96.67
2022-10-21T01:43:25.790Z,96.21
2022-10-21T01:44:25.783Z,96.67
2022-10-21T01:45:25.804Z,96.72
2022-10-21T01:46:25.798Z,97.17
2022-10-21T01:47:25.762Z,96.87
2022-10-21T01:48:25.764Z,96.77
2022-10-21T01:49:25.747Z,96.77
2022-10-21T01:50:25.723Z,97.79
2022-10-21T01:52:25.717Z,96.15
2022-10-21T01:53:25.691Z,96.77
2022-10-21T01:54:25.696Z,97.49
2022-10-21T01:55:25.681Z,97.38
2022-10-21T01:56:25.669Z,96.77
2022-10-21T01:57:25.670Z,96.11
2022-10-21T01:58:25.634Z,97.44
2022-10-21T01:59:25.638Z,96.46
2022-10-21T02:01:25.694Z,96.51
2022-10-21T02:02:25.602Z,96.51
2022-10-21T02:03:25.598Z,96.72
2022-10-21T02:04:25.571Z,96.62
2022-10-21T02:05:25.599Z,96.36
2022-10-21T02:06:25.546Z,96.42
2022-10-21T02:07:25.532Z,95.95
2022-10-21T02:08:25.540Z,96.31
2022-10-21T02:09:25.538Z,96.31
2022-10-21T02:10:25.544Z,96.77
2022-10-21T02:11:25.517Z,97.69
2022-10-21T02:12:25.484Z,96.42
2022-10-21T02:13:25.485Z,96.36
2022-10-21T02:14:25.481Z,97.58
2022-10-21T02:15:25.485Z,97.28
2022-10-21T02:16:25.437Z,96.36
2022-10-21T02:17:25.411Z,96.46
2022-10-21T02:18:25.426Z,96.97
2022-10-21T02:19:25.470Z,97.28
2022-10-21T02:20:25.410Z,96.97
2022-10-21T02:21:25.398Z,97.28
2022-10-21T02:22:25.389Z,97.08
2022-10-21T02:23:25.364Z,97.42
2022-10-21T02:24:25.425Z,97.42
2022-10-21T02:25:25.334Z,98.24
2022-10-21T02:26:25.341Z,97.83
2022-10-21T02:27:25.331Z,97.83
2022-10-21T02:28:25.292Z,97.74
2022-10-21T02:29:25.301Z,98.14
2022-10-21T02:30:25.299Z,98.24
2022-10-21T02:31:25.288Z,98.86
2022-10-21T02:32:25.255Z,98.96
2022-10-21T02:33:25.248Z,98.86
2022-10-21T02:34:25.228Z,98.65
2022-10-21T02:35:25.228Z,98.24
2022-10-21T02:36:25.230Z,98.55
2022-10-21T02:37:25.240Z,99.16
2022-10-21T02:38:25.193Z,98.96
2022-10-21T02:39:25.166Z,98.55
2022-10-21T02:40:25.196Z,99.06
2022-10-21T02:41:25.149Z,99.06
2022-10-21T02:42:25.163Z,99.37
2022-10-21T02:43:25.170Z,99.47
2022-10-21T02:44:25.134Z,99.27
2022-10-21T02:45:25.138Z,98.75
2022-10-21T02:46:25.103Z,99.27
2022-10-21T02:47:25.106Z,99.27
2022-10-21T02:48:25.105Z,99.47
2022-10-21T02:49:25.092Z,98.96
2022-10-21T02:50:25.065Z,99.47
2022-10-21T02:51:25.033Z,99.27
2022-10-21T02:52:25.042Z,98.96
2022-10-21T02:53:25.064Z,98.96
2022-10-21T02:54:25.007Z,99.37
2022-10-21T02:55:25.002Z,99.99
2022-10-21T02:56:25.023Z,99.98
2022-10-21T02:57:24.973Z,99.88
2022-10-21T02:58:25.023Z,99.98
2022-10-21T02:59:24.976Z,99.99
2022-10-21T03:00:25.559Z,99.99
2022-10-21T03:01:25.012Z,99.99
2022-10-21T03:02:24.952Z,99.99
2022-10-21T03:03:24.910Z,99.98
2022-10-21T03:04:24.948Z,99.37
2022-10-21T03:05:24.950Z,99.99
2022-10-21T03:06:24.878Z,99.57
2022-10-21T03:07:24.883Z,99.99
2022-10-21T03:08:24.843Z,99.99
2022-10-21T03:09:24.869Z,99.27
2022-10-21T03:10:24.868Z,98.96
2022-10-21T03:11:24.808Z,98.45
2022-10-21T03:12:24.813Z,98.45
2022-10-21T03:13:24.821Z,98.50
2022-10-21T03:14:24.830Z,98.86
2022-10-21T03:15:24.767Z,98.81
2022-10-21T03:16:24.803Z,98.81
2022-10-21T03:17:25.438Z,99.43
2022-10-21T03:18:24.743Z,98.71
2022-10-21T03:19:24.765Z,98.91
2022-10-21T03:20:24.733Z,99.02
2022-10-21T03:21:24.714Z,98.91
2022-10-21T03:22:24.722Z,99.22
2022-10-21T03:23:24.688Z,99.32
2022-10-21T03:24:28.698Z,99.43
2022-10-21T03:25:24.720Z,99.22
2022-10-21T03:26:24.660Z,99.43
2022-10-21T03:27:24.672Z,99.32
2022-10-21T03:28:24.666Z,99.43
2022-10-21T03:29:24.631Z,99.43
2022-10-21T03:30:24.625Z,99.02
2022-10-21T03:31:24.646Z,98.81
2022-10-21T03:32:24.587Z,99.22
2022-10-21T03:33:24.598Z,98.91
2022-10-21T03:34:24.555Z,98.81
2022-10-21T03:35:24.563Z,98.91
2022-10-21T03:36:24.535Z,99.22
2022-10-21T03:37:24.570Z,99.32
2022-10-21T03:38:24.541Z,99.43
2022-10-21T03:39:24.531Z,99.32
2022-10-21T03:40:24.494Z,99.32
2022-10-21T03:41:24.495Z,99.02
2022-10-21T03:42:24.464Z,99.43
2022-10-21T03:43:24.510Z,98.91
2022-10-21T03:44:24.443Z,99.22
2022-10-21T03:45:24.431Z,99.32
2022-10-21T03:46:24.438Z,98.91
2022-10-21T03:47:24.432Z,99.18
2022-10-21T03:48:24.401Z,99.32
2022-10-21T03:49:24.462Z,99.43
2022-10-21T03:50:26.599Z,99.84
2022-10-21T03:51:24.413Z,99.93
2022-10-21T03:52:24.375Z,99.99
2022-10-21T03:53:41.775Z,99.84
2022-10-21T03:54:25.353Z,99.99
2022-10-21T03:55:24.409Z,99.99
2022-10-21T03:56:24.320Z,99.99
2022-10-21T03:57:24.353Z,99.99
2022-10-21T03:58:24.304Z,99.99
2022-10-21T03:59:24.275Z,99.99
2022-10-21T04:00:26.078Z,99.99
2022-10-21T04:01:24.354Z,99.99
2022-10-21T04:02:24.250Z,99.99
2022-10-21T04:03:24.252Z,99.99
2022-10-21T04:04:24.251Z,99.99
2022-10-21T04:05:24.258Z,99.99
2022-10-21T04:06:24.209Z,99.99
2022-10-21T04:07:24.213Z,99.99
2022-10-21T04:08:24.181Z,99.99
2022-10-21T04:09:24.184Z,99.99
2022-10-21T04:10:24.190Z,99.99
2022-10-21T04:11:24.162Z,99.99
2022-10-21T04:12:24.149Z,99.99
2022-10-21T04:13:24.164Z,99.99
2022-10-21T04:14:24.117Z,99.99
2022-10-21T04:15:24.112Z,99.99
2022-10-21T04:16:24.172Z,99.99
2022-10-21T04:17:24.099Z,99.99
2022-10-21T04:18:24.099Z,99.99
2022-10-21T04:19:24.058Z,99.99
2022-10-21T04:20:24.100Z,99.99
2022-10-21T04:22:24.032Z,99.99
2022-10-21T04:23:24.080Z,99.99
2022-10-21T04:24:24.051Z,99.99
2022-10-21T04:25:24.048Z,99.99
2022-10-21T04:26:24.001Z,99.99
2022-10-21T04:27:23.981Z,99.99
2022-10-21T04:28:23.961Z,99.99
2022-10-21T04:29:24.035Z,99.99
2022-10-21T04:30:24.026Z,99.99
2022-10-21T04:31:26.524Z,99.99
2022-10-21T04:32:23.920Z,99.99
2022-10-21T04:33:23.899Z,99.99
2022-10-21T04:34:23.908Z,99.99
2022-10-21T04:35:23.910Z,99.99
2022-10-21T04:36:23.918Z,99.99
2022-10-21T04:37:23.865Z,99.99
2022-10-21T04:38:31.816Z,99.99
2022-10-21T04:39:23.885Z,99.99
2022-10-21T04:40:23.828Z,99.99
2022-10-21T04:41:23.847Z,99.99
2022-10-21T04:42:23.909Z,99.99
2022-10-21T04:43:23.805Z,99.99
2022-10-21T04:44:23.810Z,99.99
2022-10-21T04:45:23.790Z,99.99
2022-10-21T04:46:23.773Z,99.99
2022-10-21T04:47:23.770Z,99.99
2022-10-21T04:48:23.742Z,99.99
2022-10-21T04:49:23.737Z,99.99
2022-10-21T04:50:23.754Z,99.99
2022-10-21T04:51:23.792Z,99.99
2022-10-21T04:52:23.705Z,99.99
2022-10-21T04:53:23.707Z,99.99
2022-10-21T04:54:23.675Z,99.99
2022-10-21T04:55:23.670Z,99.99
2022-10-21T04:56:23.646Z,99.99
2022-10-21T04:57:23.662Z,99.99
2022-10-21T04:58:23.663Z,99.99
2022-10-21T04:59:23.613Z,99.99
2022-10-21T05:00:23.614Z,99.99
2022-10-21T05:01:23.722Z,99.99
2022-10-21T05:02:25.480Z,99.99
2022-10-21T05:03:23.567Z,99.99
2022-10-21T05:04:23.644Z,99.99
2022-10-21T05:05:23.547Z,99.99
2022-10-21T05:06:23.554Z,99.99
2022-10-21T05:07:23.523Z,99.99
2022-10-21T05:08:23.535Z,99.99
2022-10-21T05:09:23.511Z,99.99
2022-10-21T05:10:23.516Z,99.99
2022-10-21T05:11:23.486Z,99.99
2022-10-21T05:12:23.555Z,99.99
2022-10-21T05:13:23.509Z,99.99
2022-10-21T05:14:23.462Z,99.99
2022-10-21T05:15:23.458Z,99.99
2022-10-21T05:16:23.464Z,99.99
2022-10-21T05:17:23.448Z,99.99
2022-10-21T05:18:23.450Z,99.99
2022-10-21T05:19:24.785Z,99.99
2022-10-21T05:20:23.389Z,99.99
2022-10-21T05:21:23.401Z,99.99
2022-10-21T05:22:23.359Z,99.99
2022-10-21T05:23:23.364Z,99.99
2022-10-21T05:24:23.371Z,99.99
2022-10-21T05:25:23.961Z,99.99
2022-10-21T05:26:23.326Z,99.99
2022-10-21T05:27:23.304Z,99.99
2022-10-21T05:28:23.334Z,99.99
2022-10-21T05:29:23.304Z,99.99
2022-10-21T05:30:23.299Z,99.99
2022-10-21T05:31:23.274Z,99.99
2022-10-21T05:32:23.268Z,99.99
2022-10-21T05:33:23.286Z,99.99
2022-10-21T05:34:23.280Z,99.99
2022-10-21T05:35:23.232Z,99.99
2022-10-21T05:36:24.131Z,99.99
2022-10-21T05:37:23.198Z,99.99
2022-10-21T05:38:23.208Z,99.99
2022-10-21T05:39:23.170Z,99.99
2022-10-21T05:40:23.176Z,99.99
2022-10-21T05:41:23.151Z,99.99
2022-10-21T05:42:23.155Z,99.99
2022-10-21T05:43:23.141Z,99.99
2022-10-21T05:44:23.150Z,99.99
2022-10-21T05:45:23.107Z,99.99
2022-10-21T05:46:23.107Z,99.99
2022-10-21T05:47:23.138Z,99.99
2022-10-21T05:48:23.089Z,99.99
2022-10-21T05:49:23.080Z,99.99
2022-10-21T05:50:23.088Z,99.99
2022-10-21T05:51:23.046Z,99.99
2022-10-21T05:52:23.043Z,99.99
2022-10-21T05:53:23.015Z,99.99
2022-10-21T05:54:23.009Z,99.99
2022-10-21T05:55:23.030Z,99.99
2022-10-21T05:56:23.038Z,99.99
2022-10-21T05:57:22.986Z,99.99
2022-10-21T05:58:22.993Z,99.99
2022-10-21T05:59:22.965Z,99.99
2022-10-21T06:00:22.942Z,99.99
2022-10-21T06:01:23.071Z,99.99
2022-10-21T06:02:22.953Z,99.99
2022-10-21T06:03:22.922Z,99.99
2022-10-21T06:04:22.892Z,99.99
2022-10-21T06:05:22.923Z,99.99
2022-10-21T06:06:22.891Z,99.99
2022-10-21T06:07:22.895Z,99.99
2022-10-21T06:08:22.856Z,99.99
2022-10-21T06:09:22.859Z,99.99
2022-10-21T06:10:26.702Z,99.99
2022-10-21T06:11:23.848Z,99.99
2022-10-21T06:12:22.825Z,99.99
2022-10-21T06:13:22.790Z,99.99
2022-10-21T06:14:22.795Z,99.99
2022-10-21T06:15:22.802Z,99.99
2022-10-21T06:16:22.766Z,99.99
2022-10-21T06:17:22.775Z,99.99
2022-10-21T06:18:22.758Z,99.99
2022-10-21T06:19:22.729Z,99.99
2022-10-21T06:20:22.728Z,99.99
2022-10-21T06:21:22.744Z,99.99
2022-10-21T06:22:22.709Z,99.99
2022-10-21T06:23:22.744Z,99.99
2022-10-21T06:24:22.702Z,99.99
2022-10-21T06:25:22.672Z,99.99
2022-10-21T06:26:22.664Z,99.99
2022-10-21T06:27:22.668Z,99.99
2022-10-21T06:28:22.625Z,99.99
2022-10-21T06:29:22.654Z,99.99
2022-10-21T06:30:22.600Z,99.99
2022-10-21T06:31:23.312Z,99.99
2022-10-21T06:32:22.614Z,99.99
2022-10-21T06:33:26.201Z,99.99
2022-10-21T06:34:22.571Z,99.99
2022-10-21T06:35:22.580Z,99.99
2022-10-21T06:36:22.539Z,99.99
2022-10-21T06:37:22.567Z,99.99
2022-10-21T06:38:22.552Z,99.99
2022-10-21T06:39:22.523Z,99.99
2022-10-21T06:40:22.512Z,99.99
2022-10-21T06:41:22.516Z,99.99
2022-10-21T06:42:22.478Z,99.99
2022-10-21T06:44:22.454Z,99.99
2022-10-21T06:45:22.447Z,99.99
2022-10-21T06:46:22.450Z,99.99
2022-10-21T06:47:22.411Z,99.99
2022-10-21T06:48:22.463Z,99.99
2022-10-21T06:49:22.424Z,99.99
2022-10-21T06:50:22.390Z,99.99
2022-10-21T06:51:22.393Z,99.99
2022-10-21T06:52:22.468Z,99.99
2022-10-21T06:53:22.390Z,99.99
2022-10-21T06:54:22.411Z,99.99
2022-10-21T06:55:22.322Z,99.99
2022-10-21T06:56:22.323Z,99.99
2022-10-21T06:57:22.335Z,99.99
2022-10-21T06:58:22.312Z,99.99
2022-10-21T06:59:22.292Z,99.99
2022-10-21T07:00:22.362Z,99.99
2022-10-21T07:01:34.290Z,99.99
2022-10-21T07:02:23.280Z,99.99
2022-10-21T07:03:22.258Z,99.99
2022-10-21T07:04:22.221Z,99.99
2022-10-21T07:05:22.235Z,99.99
2022-10-21T07:06:22.327Z,99.99
2022-10-21T07:07:22.229Z,99.99
2022-10-21T07:08:25.796Z,99.99
2022-10-21T07:09:23.294Z,99.99
2022-10-21T07:10:22.160Z,99.99
2022-10-21T07:11:22.157Z,99.99
2022-10-21T07:12:22.276Z,99.99
2022-10-21T07:13:25.619Z,99.99
2022-10-21T07:14:22.156Z,99.99
2022-10-21T07:15:22.118Z,99.99
2022-10-21T07:16:22.099Z,99.99
2022-10-21T07:17:22.108Z,99.99
2022-10-21T07:18:22.114Z,99.99
2022-10-21T07:19:22.070Z,99.99
2022-10-21T07:20:22.087Z,99.99
2022-10-21T07:21:22.035Z,99.99
2022-10-21T07:22:22.039Z,99.99
2022-10-21T07:23:22.046Z,99.99
2022-10-21T07:24:22.837Z,99.99
2022-10-21T07:25:22.034Z,99.99
2022-10-21T07:26:22.018Z,99.99
2022-10-21T07:27:21.972Z,99.99
2022-10-21T07:28:21.978Z,99.99
2022-10-21T07:29:21.985Z,99.99
2022-10-21T07:30:21.949Z,99.99
2022-10-21T07:31:21.959Z,99.99
2022-10-21T07:32:21.941Z,99.99
2022-10-21T07:33:21.910Z,99.99
2022-10-21T07:34:21.907Z,99.99
2022-10-21T07:35:21.911Z,99.99
2022-10-21T07:36:21.878Z,99.99
2022-10-21T07:37:21.898Z,99.13
2022-10-21T07:38:22.851Z,98.98
2022-10-21T07:39:21.850Z,98.77
2022-10-21T07:40:21.824Z,98.77
2022-10-21T07:41:21.838Z,98.36
2022-10-21T07:42:21.815Z,98.57
2022-10-21T07:43:21.820Z,98.57
2022-10-21T07:44:21.783Z,98.77
2022-10-21T07:45:21.779Z,98.77
2022-10-21T07:46:21.759Z,98.68
2022-10-21T07:47:21.759Z,98.68
2022-10-21T07:48:21.757Z,98.77
2022-10-21T07:49:21.761Z,98.83
2022-10-21T07:50:21.841Z,98.77
2022-10-21T07:51:23.659Z,99.04
2022-10-21T07:52:21.693Z,98.93
2022-10-21T07:53:21.699Z,98.83
2022-10-21T07:54:21.673Z,98.83
2022-10-21T07:55:21.667Z,98.02
2022-10-21T07:56:21.661Z,98.22
2022-10-21T07:57:21.652Z,98.73
2022-10-21T07:58:21.631Z,98.32
2022-10-21T07:59:21.626Z,98.83
2022-10-21T08:00:21.671Z,98.63
2022-10-21T08:01:21.731Z,98.32
2022-10-21T08:02:21.613Z,98.32
2022-10-21T08:03:21.568Z,98.58
2022-10-21T08:04:21.572Z,98.68
2022-10-21T08:05:21.552Z,97.77
2022-10-21T08:06:21.548Z,97.16
2022-10-21T08:07:21.551Z,97.05
2022-10-21T08:08:21.539Z,96.95
2022-10-21T08:09:21.501Z,97.05
2022-10-21T08:10:21.620Z,96.75
2022-10-21T08:11:21.515Z,97.25
2022-10-21T08:12:21.512Z,97.05
2022-10-21T08:13:21.504Z,96.75
2022-10-21T08:14:21.468Z,95.93
2022-10-21T08:15:21.442Z,96.19
2022-10-21T08:16:21.437Z,96.09
2022-10-21T08:17:21.442Z,95.89
2022-10-21T08:18:21.503Z,96.19
2022-10-21T08:19:21.474Z,96.60
2022-10-21T08:20:21.377Z,97.06
2022-10-21T08:21:21.381Z,96.04
2022-10-21T08:22:21.382Z,96.55
2022-10-21T08:23:21.358Z,96.55
2022-10-21T08:24:21.345Z,96.76
2022-10-21T08:25:21.352Z,95.74
2022-10-21T08:26:21.312Z,95.43
2022-10-21T08:27:21.310Z,95.13
2022-10-21T08:28:21.436Z,94.92
2022-10-21T08:29:21.299Z,95.08
2022-10-21T08:30:21.292Z,95.08
2022-10-21T08:31:21.281Z,94.98
2022-10-21T08:32:21.253Z,94.92
2022-10-21T08:33:21.244Z,94.98
2022-10-21T08:34:21.237Z,94.88
2022-10-21T08:35:21.217Z,94.68
2022-10-21T08:36:21.212Z,94.88
2022-10-21T08:37:24.886Z,95.29
2022-10-21T08:38:21.197Z,94.98
2022-10-21T08:39:21.203Z,95.08
2022-10-21T08:40:21.191Z,94.57
2022-10-21T08:41:21.161Z,94.88
2022-10-21T08:42:21.162Z,94.47
2022-10-21T08:43:21.133Z,94.73
2022-10-21T08:44:21.131Z,94.32
2022-10-21T08:45:21.126Z,93.51
2022-10-21T08:46:21.808Z,93.41
2022-10-21T08:47:21.094Z,93.82
2022-10-21T08:48:21.071Z,93.96
2022-10-21T08:49:24.012Z,94.43
2022-10-21T08:50:22.041Z,94.32
2022-10-21T08:51:21.043Z,93.31
2022-10-21T08:52:21.031Z,93.71
2022-10-21T08:53:21.110Z,94.63
2022-10-21T08:54:21.029Z,94.02
2022-10-21T08:55:21.009Z,94.12
2022-10-21T08:56:21.019Z,93.57
2022-10-21T08:57:20.965Z,93.47
2022-10-21T08:58:20.971Z,93.47
2022-10-21T08:59:20.966Z,93.37
2022-10-21T09:00:20.947Z,92.35
2022-10-21T09:01:20.957Z,93.37
2022-10-21T09:02:20.951Z,93.06
2022-10-21T09:03:20.981Z,93.57
2022-10-21T09:04:20.903Z,93.22
2022-10-21T09:05:20.940Z,93.02
2022-10-21T09:06:20.872Z,93.22
2022-10-21T09:07:20.861Z,92.21
2022-10-21T09:08:20.859Z,92.55
2022-10-21T09:09:20.879Z,92.61
2022-10-21T09:10:20.834Z,92.51
2022-10-21T09:11:20.859Z,92.61
2022-10-21T09:12:21.297Z,92.91
2022-10-21T09:13:20.807Z,91.69
2022-10-21T09:14:20.806Z,91.39
2022-10-21T09:15:20.778Z,91.80
2022-10-21T09:16:20.750Z,92.30
2022-10-21T09:17:20.768Z,91.90
2022-10-21T09:18:20.731Z,92.71
2022-10-21T09:19:20.731Z,92.65
2022-10-21T09:20:20.717Z,92.55
2022-10-21T09:21:20.705Z,92.96
2022-10-21T09:22:34.898Z,93.67
2022-10-21T09:23:21.727Z,93.51
2022-10-21T09:24:20.688Z,93.92
2022-10-21T09:25:20.671Z,93.82
2022-10-21T09:26:20.652Z,93.92
2022-10-21T09:27:26.999Z,94.12
2022-10-21T09:28:21.643Z,93.92
2022-10-21T09:29:20.624Z,94.63
2022-10-21T09:30:20.605Z,94.32
2022-10-21T09:31:20.587Z,93.51
2022-10-21T09:32:20.661Z,93.51
2022-10-21T09:33:20.590Z,93.82
2022-10-21T09:34:20.559Z,93.55
2022-10-21T09:35:20.555Z,93.15
2022-10-21T09:36:20.558Z,93.76
2022-10-21T09:37:20.523Z,94.27
2022-10-21T09:38:20.520Z,94.21
2022-10-21T09:39:20.497Z,94.72
2022-10-21T09:40:20.495Z,95.23
2022-10-21T09:41:23.549Z,95.33
2022-10-21T09:42:42.271Z,95.13
2022-10-21T09:43:21.458Z,95.13
2022-10-21T09:44:20.455Z,95.33
2022-10-21T09:45:20.463Z,94.82
2022-10-21T09:46:20.437Z,94.82
2022-10-21T09:47:20.410Z,94.72
2022-10-21T09:48:20.405Z,95.29
2022-10-21T09:49:47.854Z,95.13
2022-10-21T09:50:22.397Z,94.92
2022-10-21T09:51:20.369Z,95.29
2022-10-21T09:52:20.351Z,94.92
2022-10-21T09:53:22.723Z,94.72
2022-10-21T09:54:21.346Z,94.52
2022-10-21T09:55:20.328Z,95.13
2022-10-21T09:56:20.304Z,94.98
2022-10-21T09:57:20.299Z,95.08
2022-10-21T09:58:20.298Z,94.57
2022-10-21T09:59:20.300Z,93.92
2022-10-21T10:00:20.273Z,94.98
2022-10-21T10:01:20.273Z,94.63
2022-10-21T10:02:20.278Z,93.82
2022-10-21T10:03:20.233Z,93.92
2022-10-21T10:04:20.255Z,93.51
2022-10-21T10:05:20.238Z,94.53
2022-10-21T10:06:20.205Z,95.04
2022-10-21T10:07:20.184Z,95.04
2022-10-21T10:08:20.180Z,94.84
2022-10-21T10:09:20.180Z,94.73
2022-10-21T10:10:20.169Z,94.73
2022-10-21T10:11:20.145Z,93.82
2022-10-21T10:12:20.145Z,93.92
2022-10-21T10:13:20.120Z,94.89
2022-10-21T10:14:20.119Z,94.59
2022-10-21T10:15:20.095Z,93.98
2022-10-21T10:16:20.120Z,93.83
2022-10-21T10:17:20.085Z,93.52
2022-10-21T10:18:20.088Z,93.52
2022-10-21T10:19:20.050Z,92.82
2022-10-21T10:20:20.067Z,93.32
2022-10-21T10:21:20.056Z,92.51
2022-10-21T10:22:20.017Z,92.16
2022-10-21T10:23:20.012Z,92.57
2022-10-21T10:24:19.993Z,92.57
2022-10-21T10:25:19.998Z,91.65
2022-10-21T10:26:19.998Z,92.47
2022-10-21T10:27:19.971Z,92.77
2022-10-21T10:28:19.961Z,92.06
2022-10-21T10:29:19.970Z,93.13
2022-10-21T10:30:19.928Z,92.16
2022-10-21T10:31:19.930Z,92.57
2022-10-21T10:32:19.909Z,92.42
2022-10-21T10:33:19.915Z,92.42
2022-10-21T10:34:19.900Z,92.12
2022-10-21T10:35:19.895Z,92.42
2022-10-21T10:36:19.870Z,92.42
2022-10-21T10:37:19.976Z,92.22
2022-10-21T10:38:19.859Z,92.32
2022-10-21T10:39:19.853Z,92.42
2022-10-21T10:40:19.824Z,92.32
2022-10-21T10:41:19.807Z,92.83
2022-10-21T10:42:19.803Z,92.63
2022-10-21T10:43:19.786Z,92.68
2022-10-21T10:44:19.801Z,91.97
2022-10-21T10:45:19.772Z,91.67
2022-10-21T10:46:19.760Z,91.67
2022-10-21T10:47:19.736Z,91.67
2022-10-21T10:48:19.740Z,91.56
2022-10-21T10:49:19.746Z,91.47
2022-10-21T10:50:19.712Z,91.56
2022-10-21T10:51:19.706Z,91.36
2022-10-21T10:52:19.700Z,91.36
2022-10-21T10:53:19.799Z,90.96
2022-10-21T10:54:19.683Z,91.36
2022-10-21T10:55:19.673Z,91.67
2022-10-21T10:56:19.639Z,91.42
2022-10-21T10:57:19.647Z,91.42
2022-10-21T10:58:21.933Z,91.63
2022-10-21T10:59:19.611Z,91.52
2022-10-21T11:00:19.624Z,91.73
2022-10-21T11:01:19.642Z,91.42
2022-10-21T11:02:19.580Z,91.12
2022-10-21T11:03:23.933Z,90.71
2022-10-21T11:04:20.551Z,90.71
2022-10-21T11:05:19.545Z,90.71
2022-10-21T11:06:19.540Z,90.61
2022-10-21T11:07:19.511Z,90.61
2022-10-21T11:08:19.522Z,90.92
2022-10-21T11:09:22.626Z,91.63
2022-10-21T11:10:19.482Z,91.38
2022-10-21T11:11:19.491Z,91.48
2022-10-21T11:12:19.500Z,91.58
2022-10-21T11:13:19.453Z,91.17
2022-10-21T11:14:21.924Z,90.36
2022-10-21T11:15:19.424Z,90.36
2022-10-21T11:16:19.435Z,89.76
2022-10-21T11:17:19.402Z,90.22
2022-10-21T11:18:25.991Z,90.12
2022-10-21T11:19:20.374Z,90.12
2022-10-21T11:20:19.383Z,90.73
2022-10-21T11:21:19.413Z,90.42
2022-10-21T11:22:19.349Z,90.22
2022-10-21T11:23:19.339Z,90.22
2022-10-21T11:24:19.857Z,89.77
2022-10-21T11:25:19.437Z,90.08
2022-10-21T11:26:19.322Z,90.12
2022-10-21T11:27:19.386Z,88.60
2022-10-21T11:28:19.290Z,88.66
2022-10-21T11:29:19.291Z,88.90
2022-10-21T11:30:19.367Z,90.12
2022-10-21T11:31:19.258Z,89.21
2022-10-21T11:32:19.239Z,90.02
2022-10-21T11:33:19.236Z,90.73
2022-10-21T11:34:19.220Z,90.53
2022-10-21T11:35:19.200Z,90.62
2022-10-21T11:36:19.207Z,90.12
2022-10-21T11:37:19.172Z,90.62
2022-10-21T11:38:19.163Z,91.13
2022-10-21T11:39:21.504Z,90.73
2022-10-21T11:40:19.151Z,91.54
2022-10-21T11:41:20.814Z,91.54
2022-10-21T11:42:19.144Z,91.34
2022-10-21T11:43:19.141Z,91.34
2022-10-21T11:44:19.106Z,91.30
2022-10-21T11:45:19.152Z,91.64
2022-10-21T11:46:19.071Z,91.13
2022-10-21T11:47:19.123Z,91.64
2022-10-21T11:48:19.078Z,90.83
2022-10-21T11:49:19.037Z,91.85
2022-10-21T11:51:19.050Z,92.45
2022-10-21T11:52:19.008Z,92.35
2022-10-21T11:53:18.998Z,92.76
2022-10-21T11:54:18.980Z,93.16
2022-10-21T11:55:18.984Z,93.87
2022-10-21T11:56:18.985Z,94.38
2022-10-21T11:57:19.077Z,94.58
2022-10-21T11:58:18.946Z,94.68
2022-10-21T11:59:19.046Z,94.98
2022-10-21T12:00:18.913Z,94.98
2022-10-21T12:01:18.915Z,94.48
2022-10-21T12:02:18.946Z,94.58
2022-10-21T12:03:18.877Z,95.29
2022-10-21T12:04:18.884Z,95.70
2022-10-21T12:05:18.866Z,95.29
2022-10-21T12:06:18.863Z,95.70
2022-10-21T12:07:18.843Z,96.86
2022-10-21T12:08:18.873Z,96.30
2022-10-21T12:09:18.823Z,95.70
2022-10-21T12:10:18.816Z,95.70
2022-10-21T12:11:18.788Z,95.59
2022-10-21T12:12:18.788Z,96.10
2022-10-21T12:13:18.985Z,96.00
2022-10-21T12:14:18.773Z,95.70
2022-10-21T12:15:18.755Z,96.30
2022-10-21T12:16:18.753Z,96.71
2022-10-21T12:17:18.722Z,96.51
2022-10-21T12:18:18.728Z,96.41
2022-10-21T12:19:18.723Z,96.10
2022-10-21T12:20:22.847Z,96.71
2022-10-21T12:21:19.681Z,97.02
2022-10-21T12:22:18.665Z,97.02
2022-10-21T12:23:18.668Z,96.71
2022-10-21T12:24:18.654Z,97.32
2022-10-21T12:25:18.644Z,97.62
2022-10-21T12:26:18.628Z,96.71
2022-10-21T12:27:18.626Z,96.91
2022-10-21T12:28:18.608Z,96.61
2022-10-21T12:29:18.715Z,95.90
2022-10-21T12:30:22.148Z,96.00
2022-10-21T12:31:19.573Z,96.77
2022-10-21T12:32:18.568Z,96.77
2022-10-21T12:33:18.540Z,96.51
2022-10-21T12:34:18.583Z,96.66
2022-10-21T12:35:18.578Z,97.32
2022-10-21T12:36:18.526Z,96.71
2022-10-21T12:37:18.502Z,97.47
2022-10-21T12:38:18.495Z,96.77
2022-10-21T12:39:18.503Z,97.32
2022-10-21T12:40:18.470Z,97.62
2022-10-21T12:41:18.468Z,96.10
2022-10-21T12:42:18.484Z,96.61
2022-10-21T12:43:18.441Z,96.71
2022-10-21T12:44:18.435Z,96.51
2022-10-21T12:45:18.467Z,96.55
2022-10-21T12:46:18.403Z,97.62
2022-10-21T12:47:18.415Z,97.42
2022-10-21T12:48:18.396Z,97.22
2022-10-21T12:49:18.379Z,97.06
2022-10-21T12:50:18.350Z,98.18
2022-10-21T12:51:18.343Z,97.83
2022-10-21T12:52:18.349Z,97.72
2022-10-21T12:53:18.326Z,97.87
2022-10-21T12:54:18.312Z,97.87
2022-10-21T12:55:18.305Z,97.52
2022-10-21T12:56:18.283Z,98.03
2022-10-21T12:57:18.282Z,98.23